Time;durP1;ratioP1;P1;durP2;ratioP2;P2;SDS_P1;SDS_P2;PMS_P1;PMS_P2;Temp;Humidity;BMP_temperature;BMP_pressure;BME280_temperature;BME280_humidity;BME280_pressure;Samples;Min_cycle;Max_cycle;Signal;HPM_P1;HPM_P2
2023/01/08 00:00:56;;;;;;;;;;;;;;;3.64;100.00;95984.47;5076166;28;19946;-72
2023/01/08 00:03:22;;;;;;;;;;;;;;;3.68;100.00;95982.34;5076144;28;20420;-72
2023/01/08 00:05:48;;;;;;;;;;;;;;;3.65;100.00;95970.53;5075960;28;19964;-72
2023/01/08 00:08:14;;;;;;;;;;;;;;;3.66;100.00;95984.31;5075971;28;20294;-72
2023/01/08 00:10:40;;;;;;;;;;;;;;;3.68;100.00;95981.53;5076085;28;19951;-72
2023/01/08 00:13:06;;;;;;;;;;;;;;;3.69;100.00;95981.31;5076121;28;20016;-72
2023/01/08 00:15:33;;;;;;;;;;;;;;;3.71;100.00;95988.94;5075909;28;19954;-72
2023/01/08 00:17:59;;;;;;;;;;;;;;;3.72;100.00;95973.19;5075787;28;19946;-72
2023/01/08 00:20:25;;;;;;;;;;;;;;;3.72;100.00;95970.59;5075168;28;20414;-72
2023/01/08 00:22:51;;;;;;;;;;;;;;;3.70;100.00;95969.19;5075767;28;19949;-72
2023/01/08 00:25:17;;;;;;;;;;;;;;;3.69;100.00;95968.38;5075733;28;20366;-72
2023/01/08 00:27:43;;;;;;;;;;;;;;;3.66;100.00;95951.38;5075755;28;19947;-72
2023/01/08 00:30:10;;;;;;;;;;;;;;;3.64;100.00;95949.97;5075657;28;19942;-72
2023/01/08 00:32:36;;;;;;;;;;;;;;;3.63;100.00;95941.41;5075817;28;20322;-72
2023/01/08 00:35:02;;;;;;;;;;;;;;;3.63;100.00;95936.22;5075687;28;19948;-72
2023/01/08 00:37:28;;;;;;;;;;;;;;;3.64;100.00;95935.22;5076040;28;19962;-72
2023/01/08 00:39:54;;;;;;;;;;;;;;;3.66;100.00;95935.84;5074553;28;20015;-72
2023/01/08 00:42:19;;;;;;;;;;;;;;;3.70;100.00;95933.69;5075506;28;19997;-72
2023/01/08 00:44:45;;;;;;;;;;;;;;;3.71;100.00;95937.06;5075600;28;19958;-72
2023/01/08 00:47:12;;;;;;;;;;;;;;;3.71;100.00;95934.47;5073962;28;20010;-72
2023/01/08 00:49:37;;;;;;;;;;;;;;;3.73;100.00;95932.50;5075810;28;19952;-72
2023/01/08 00:52:04;;;;;;;;;;;;;;;3.73;100.00;95924.72;5075324;28;19952;-72
2023/01/08 00:54:29;;;;;;;;;;;;;;;3.73;100.00;95920.31;5075610;28;20436;-72
2023/01/08 00:56:55;;;;;;;;;;;;;;;3.72;100.00;95913.53;5075103;28;20016;-72
2023/01/08 00:59:21;;;;;;;;;;;;;;;3.69;100.00;95915.69;5075165;28;19993;-72
2023/01/08 01:01:47;;;;;;;;;;;;;;;3.70;100.00;95920.72;5074940;28;19950;-73
2023/01/08 01:04:13;;;;;;;;;;;;;;;3.70;100.00;95917.31;5075242;28;20294;-72
2023/01/08 01:06:40;;;;;;;;;;;;;;;3.68;100.00;95907.13;5074840;28;19966;-72
2023/01/08 01:09:06;;;;;;;;;;;;;;;3.69;100.00;95908.72;5075282;28;20320;-72
2023/01/08 01:11:32;;;;;;;;;;;;;;;3.69;100.00;95911.31;5074948;28;19958;-72
2023/01/08 01:13:58;;;;;;;;;;;;;;;3.70;100.00;95904.34;5074818;28;19947;-72
2023/01/08 01:16:24;;;;;;;;;;;;;;;3.69;100.00;95893.16;5074432;28;19950;-72
2023/01/08 01:18:51;;;;;;;;;;;;;;;3.68;100.00;95896.75;5074795;28;20427;-72
2023/01/08 01:21:21;;;;;;;;;;;;;;;3.68;100.00;95888.19;5074933;28;19972;-72
2023/01/08 01:23:47;;;;;;;;;;;;;;;3.67;100.00;95889.94;5075091;28;19964;-72
2023/01/08 01:26:14;;;;;;;;;;;;;;;3.69;100.00;95910.53;5074525;28;19958;-72
2023/01/08 01:28:40;;;;;;;;;;;;;;;3.69;100.00;95918.28;5074580;28;20332;-72
2023/01/08 01:31:09;;;;;;;;;;;;;;;3.68;100.00;95920.09;5073851;28;19951;-73
2023/01/08 01:33:35;;;;;;;;;;;;;;;3.69;100.00;95920.88;5059034;28;20410;-72
2023/01/08 01:36:01;;;;;;;;;;;;;;;3.68;100.00;95922.69;5074507;28;19954;-72
2023/01/08 01:38:27;;;;;;;;;;;;;;;3.68;100.00;95914.91;5074133;28;19958;-72
2023/01/08 01:40:54;;;;;;;;;;;;;;;3.68;100.00;95914.13;5073057;28;19981;-72
2023/01/08 01:43:39;;;;;;;;;;;;;;;3.69;100.00;95915.69;5074171;28;19950;-72
2023/01/08 01:46:15;;;;;;;;;;;;;;;3.71;100.00;95916.31;5072935;28;19979;-72
2023/01/08 01:48:41;;;;;;;;;;;;;;;3.74;100.00;95910.75;5074608;28;19943;-72
2023/01/08 01:51:07;;;;;;;;;;;;;;;3.76;100.00;95908.75;5074137;28;19947;-72
2023/01/08 01:53:34;;;;;;;;;;;;;;;3.77;100.00;95903.41;5074121;28;19992;-72
2023/01/08 01:56:00;;;;;;;;;;;;;;;3.81;100.00;95893.47;5073894;28;19965;-72
2023/01/08 01:58:27;;;;;;;;;;;;;;;3.82;100.00;95898.47;5073847;28;19981;-72
2023/01/08 02:00:55;;;;;;;;;;;;;;;3.84;100.00;95896.47;5073865;28;20432;-72
2023/01/08 02:03:22;;;;;;;;;;;;;;;3.85;100.00;95895.47;5073962;28;19952;-72
2023/01/08 02:05:47;;;;;;;;;;;;;;;3.86;100.00;95883.31;5073810;28;19958;-72
2023/01/08 02:08:20;;;;;;;;;;;;;;;3.86;100.00;95893.69;5072678;28;19956;-72
2023/01/08 02:11:05;;;;;;;;;;;;;;;3.89;100.00;95884.75;5074194;28;20397;-72
2023/01/08 02:13:33;;;;;;;;;;;;;;;3.89;100.00;95875.16;5068147;28;20430;-72
2023/01/08 02:16:04;;;;;;;;;;;;;;;3.90;100.00;95875.97;5073744;28;19950;-72
2023/01/08 02:18:40;;;;;;;;;;;;;;;3.88;100.00;95870.94;5073993;28;19965;-72
2023/01/08 02:21:10;;;;;;;;;;;;;;;3.89;100.00;95864.78;5073756;28;19955;-72
2023/01/08 02:23:59;;;;;;;;;;;;;;;3.92;100.00;95861.00;5062653;28;19943;-72
2023/01/08 02:26:28;;;;;;;;;;;;;;;3.95;100.00;95850.22;5065124;28;19961;-72
2023/01/08 02:29:23;;;;;;;;;;;;;;;3.99;100.00;95847.09;5073636;28;20432;-72
2023/01/08 02:31:50;;;;;;;;;;;;;;;4.01;100.00;95841.69;5059102;28;19951;-72
2023/01/08 02:34:16;;;;;;;;;;;;;;;4.02;100.00;95825.94;5073653;28;19952;-72
2023/01/08 02:36:43;;;;;;;;;;;;;;;4.03;100.00;95826.72;5073487;28;20016;-72
2023/01/08 02:39:09;;;;;;;;;;;;;;;4.04;100.00;95828.34;5072559;28;20304;-72
2023/01/08 02:41:46;;;;;;;;;;;;;;;4.06;100.00;95834.94;5073308;28;19968;-72
2023/01/08 02:44:16;;;;;;;;;;;;;;;4.09;100.00;95827.78;5073701;28;19954;-72
2023/01/08 02:46:42;;;;;;;;;;;;;;;4.10;100.00;95816.41;5073309;28;19967;-72
2023/01/08 02:49:11;;;;;;;;;;;;;;;4.10;100.00;95817.22;5073368;28;19957;-72
2023/01/08 02:51:43;;;;;;;;;;;;;;;4.12;100.00;95812.63;5073715;28;19942;-72
2023/01/08 02:54:16;;;;;;;;;;;;;;;4.13;100.00;95810.81;5073360;28;19947;-72
2023/01/08 02:56:44;;;;;;;;;;;;;;;4.11;100.00;95802.44;5073781;28;19949;-72
2023/01/08 02:59:12;;;;;;;;;;;;;;;4.11;100.00;95810.22;5073317;28;19951;-72
2023/01/08 03:01:38;;;;;;;;;;;;;;;4.13;100.00;95806.44;5073130;28;19948;-72
2023/01/08 03:04:12;;;;;;;;;;;;;;;4.14;100.00;95804.66;5073171;28;19955;-72
2023/01/08 03:06:38;;;;;;;;;;;;;;;4.15;100.00;95799.25;5073293;28;19963;-72
2023/01/08 03:09:07;;;;;;;;;;;;;;;4.15;100.00;95791.47;5073057;28;19946;-72
2023/01/08 03:11:53;;;;;;;;;;;;;;;4.16;100.00;95780.13;5073234;28;20327;-72
2023/01/08 03:14:19;;;;;;;;;;;;;;;4.15;100.00;95790.69;5060667;28;20330;-72
2023/01/08 03:16:51;;;;;;;;;;;;;;;4.15;100.00;95793.28;5073212;28;19952;-72
2023/01/08 03:19:39;;;;;;;;;;;;;;;4.13;100.00;95796.06;5072964;28;19988;-72
2023/01/08 03:22:08;;;;;;;;;;;;;;;4.12;100.00;95789.28;5073099;28;19952;-72
2023/01/08 03:24:36;;;;;;;;;;;;;;;4.09;100.00;95779.25;5073545;28;20408;-72
2023/01/08 03:27:04;;;;;;;;;;;;;;;4.06;100.00;95766.69;5072299;28;19986;-73
2023/01/08 03:29:30;;;;;;;;;;;;;;;4.05;100.00;95778.06;5073173;28;20314;-72
2023/01/08 03:31:58;;;;;;;;;;;;;;;4.04;100.00;95759.09;5072297;28;19963;-72
2023/01/08 03:34:25;;;;;;;;;;;;;;;3.99;100.00;95773.63;5072816;28;19944;-72
2023/01/08 03:36:54;;;;;;;;;;;;;;;3.97;100.00;95781.63;5073191;28;19948;-72
2023/01/08 03:39:27;;;;;;;;;;;;;;;3.96;100.00;95779.22;5073170;28;20423;-72
2023/01/08 03:41:56;;;;;;;;;;;;;;;3.93;100.00;95774.44;5072932;28;19979;-72
2023/01/08 03:44:22;;;;;;;;;;;;;;;3.92;100.00;95771.00;5073161;28;19967;-72
2023/01/08 03:46:51;;;;;;;;;;;;;;;3.95;100.00;95769.81;5072668;28;20077;-72
2023/01/08 03:49:18;;;;;;;;;;;;;;;3.95;100.00;95773.22;5072890;28;19948;-72
2023/01/08 03:51:45;;;;;;;;;;;;;;;3.98;100.00;95772.84;5072780;28;20415;-72
2023/01/08 03:54:16;;;;;;;;;;;;;;;3.99;100.00;95765.84;5073766;28;20319;-72
2023/01/08 03:56:42;;;;;;;;;;;;;;;4.01;100.00;95764.69;5076236;28;19942;-72
2023/01/08 03:59:09;;;;;;;;;;;;;;;4.06;100.00;95769.28;5076256;28;20390;-72
2023/01/08 04:01:34;;;;;;;;;;;;;;;4.07;100.00;95758.72;5062438;28;19957;-72
2023/01/08 04:04:00;;;;;;;;;;;;;;;4.10;100.00;95759.34;5076333;28;19955;-72
2023/01/08 04:06:26;;;;;;;;;;;;;;;4.13;100.00;95764.91;5076136;28;19971;-72
2023/01/08 04:08:52;;;;;;;;;;;;;;;4.17;100.00;95773.13;5075991;28;20022;-72
2023/01/08 04:11:18;;;;;;;;;;;;;;;4.20;100.00;95778.72;5076063;28;19959;-72
2023/01/08 04:13:44;;;;;;;;;;;;;;;4.25;100.00;95773.75;5076144;28;19960;-72
2023/01/08 04:16:10;;;;;;;;;;;;;;;4.27;100.00;95776.16;5074932;28;20379;-72
2023/01/08 04:18:36;;;;;;;;;;;;;;;4.30;100.00;95783.53;5076280;28;19949;-72
2023/01/08 04:21:02;;;;;;;;;;;;;;;4.31;100.00;95790.34;5075968;28;19966;-72
2023/01/08 04:23:28;;;;;;;;;;;;;;;4.34;100.00;95784.75;5075867;28;19982;-72
2023/01/08 04:25:53;;;;;;;;;;;;;;;4.35;100.00;95783.78;5075823;28;20393;-72
2023/01/08 04:28:19;;;;;;;;;;;;;;;4.34;100.00;95783.97;5075668;28;20010;-72
2023/01/08 04:30:45;;;;;;;;;;;;;;;4.30;100.00;95786.13;5075853;28;20002;-72
2023/01/08 04:33:11;;;;;;;;;;;;;;;4.27;100.00;95789.13;5075951;28;20446;-72
2023/01/08 04:35:37;;;;;;;;;;;;;;;4.27;100.00;95792.53;5075619;28;20006;-72
2023/01/08 04:38:03;;;;;;;;;;;;;;;4.29;100.00;95789.75;5075619;28;20040;-72
2023/01/08 04:40:31;;;;;;;;;;;;;;;4.33;100.00;95792.75;5075226;28;20009;-72
2023/01/08 04:42:57;;;;;;;;;;;;;;;4.34;100.00;95787.34;5075706;28;19956;-72
2023/01/08 04:45:23;;;;;;;;;;;;;;;4.36;100.00;95787.16;5075512;28;20349;-72
2023/01/08 04:47:54;;;;;;;;;;;;;;;4.39;100.00;95794.53;5075348;28;20006;-72
2023/01/08 04:50:20;;;;;;;;;;;;;;;4.40;100.00;95796.16;5075556;28;19946;-72
2023/01/08 04:52:46;;;;;;;;;;;;;;;4.42;100.00;95799.38;5075448;28;19957;-72
2023/01/08 04:55:12;;;;;;;;;;;;;;;4.41;100.00;95790.78;5074583;28;19994;-71
2023/01/08 04:57:38;;;;;;;;;;;;;;;4.42;100.00;95788.97;5075471;28;19957;-71
2023/01/08 05:00:04;;;;;;;;;;;;;;;4.44;100.00;95794.78;5075065;28;19946;-71
2023/01/08 05:02:30;;;;;;;;;;;;;;;4.45;100.00;95798.97;5075514;28;19960;-71
2023/01/08 05:04:55;;;;;;;;;;;;;;;4.45;100.00;95791.16;5075000;28;20434;-71
2023/01/08 05:07:21;;;;;;;;;;;;;;;4.47;100.00;95791.78;5074891;28;20007;-71
2023/01/08 05:09:47;;;;;;;;;;;;;;;4.48;100.00;95790.78;5074729;28;19991;-71
2023/01/08 05:12:13;;;;;;;;;;;;;;;4.50;100.00;95793.22;5073747;28;20007;-71
2023/01/08 05:14:39;;;;;;;;;;;;;;;4.50;100.00;95794.00;5074979;28;19952;-72
2023/01/08 05:17:05;;;;;;;;;;;;;;;4.50;100.00;95783.63;5073751;28;19953;-71
2023/01/08 05:19:31;;;;;;;;;;;;;;;4.53;100.00;95782.41;5074662;28;19960;-71
2023/01/08 05:21:57;;;;;;;;;;;;;;;4.53;100.00;95779.81;5074577;28;19956;-72
2023/01/08 05:24:22;;;;;;;;;;;;;;;4.48;100.00;95783.00;5074907;28;20030;-71
2023/01/08 05:26:48;;;;;;;;;;;;;;;4.48;100.00;95781.22;5074666;28;19969;-71
2023/01/08 05:29:14;;;;;;;;;;;;;;;4.49;100.00;95779.41;5074677;28;20289;-71
2023/01/08 05:31:40;;;;;;;;;;;;;;;4.49;100.00;95776.81;5074599;28;19955;-71
2023/01/08 05:34:06;;;;;;;;;;;;;;;4.52;100.00;95786.81;5074772;28;19986;-71
2023/01/08 05:36:32;;;;;;;;;;;;;;;4.56;100.00;95792.44;5074457;28;19956;-71
2023/01/08 05:38:58;;;;;;;;;;;;;;;4.61;100.00;95777.84;5074180;28;20335;-71
2023/01/08 05:41:24;;;;;;;;;;;;;;;4.70;100.00;95780.25;5074565;28;19974;-71
2023/01/08 05:43:50;;;;;;;;;;;;;;;4.77;100.00;95778.50;5106980;28;20041;-71
2023/01/08 05:46:15;;;;;;;;;;;;;;;4.82;100.00;95776.09;5074144;28;19998;-71
2023/01/08 05:48:41;;;;;;;;;;;;;;;4.85;100.00;95771.31;5074182;28;19945;-71
2023/01/08 05:51:07;;;;;;;;;;;;;;;4.89;100.00;95769.09;5074116;28;19953;-72
2023/01/08 05:53:33;;;;;;;;;;;;;;;4.92;100.00;95763.50;5074833;28;20353;-71
2023/01/08 05:56:04;;;;;;;;;;;;;;;4.94;100.00;95765.91;5074182;28;19959;-71
2023/01/08 05:58:30;;;;;;;;;;;;;;;4.96;100.00;95756.91;5074054;28;19956;-71
2023/01/08 06:01:06;;;;;;;;;;;;;;;4.97;100.00;95750.72;5074332;28;19955;-71
2023/01/08 06:03:32;;;;;;;;;;;;;;;5.01;100.00;95749.31;5073980;28;19953;-71
2023/01/08 06:06:02;;;;;;;;;;;;;;;5.02;100.00;95745.72;5074057;28;19956;-71
2023/01/08 06:08:28;;;;;;;;;;;;;;;5.04;100.00;95745.50;5073876;28;20036;-71
2023/01/08 06:10:58;;;;;;;;;;;;;;;5.05;100.00;95745.31;5073630;28;19958;-71
2023/01/08 06:13:24;;;;;;;;;;;;;;;5.07;100.00;95748.50;5073710;28;20019;-72
2023/01/08 06:15:49;;;;;;;;;;;;;;;5.07;100.00;95747.72;5073845;28;19966;-71
2023/01/08 06:18:15;;;;;;;;;;;;;;;5.08;100.00;95737.13;5072793;28;20002;-71
2023/01/08 06:20:41;;;;;;;;;;;;;;;5.09;100.00;95728.31;5072284;28;19986;-73
2023/01/08 06:23:08;;;;;;;;;;;;;;;5.11;100.00;95733.31;5072635;28;19999;-71
2023/01/08 06:25:34;;;;;;;;;;;;;;;5.15;100.00;95749.31;5072649;28;19956;-72
2023/01/08 06:28:00;;;;;;;;;;;;;;;5.16;100.00;95743.91;5073568;28;19980;-71
2023/01/08 06:30:26;;;;;;;;;;;;;;;5.17;100.00;95745.53;5073821;28;20036;-71
2023/01/08 06:32:55;;;;;;;;;;;;;;;5.20;100.00;95746.91;5073541;28;19964;-72
2023/01/08 06:35:21;;;;;;;;;;;;;;;5.21;100.00;95745.94;5073469;28;19953;-72
2023/01/08 06:37:47;;;;;;;;;;;;;;;5.21;100.00;95738.13;5073454;28;20412;-71
2023/01/08 06:40:13;;;;;;;;;;;;;;;5.22;100.00;95747.50;5073344;28;20008;-71
2023/01/08 06:42:39;;;;;;;;;;;;;;;5.21;100.00;95738.91;5073328;28;19958;-71
2023/01/08 06:45:06;;;;;;;;;;;;;;;5.22;100.00;95734.50;5073558;28;19992;-71
2023/01/08 06:47:31;;;;;;;;;;;;;;;5.22;100.00;95735.31;5073152;28;19957;-71
2023/01/08 06:49:58;;;;;;;;;;;;;;;5.22;100.00;95732.72;5073525;28;19953;-71
2023/01/08 06:52:24;;;;;;;;;;;;;;;5.23;100.00;95725.72;5073356;28;20410;-71
2023/01/08 06:54:50;;;;;;;;;;;;;;;5.24;100.00;95724.72;5073335;28;19950;-71
2023/01/08 06:57:15;;;;;;;;;;;;;;;5.26;100.00;95739.09;5073516;28;20005;-71
2023/01/08 06:59:41;;;;;;;;;;;;;;;5.26;100.00;95731.31;5071911;28;20410;-71
2023/01/08 07:02:14;;;;;;;;;;;;;;;5.28;100.00;95738.91;5073430;28;19965;-71
2023/01/08 07:04:40;;;;;;;;;;;;;;;5.28;100.00;95744.91;5073182;28;19948;-71
2023/01/08 07:07:06;;;;;;;;;;;;;;;5.29;100.00;95736.13;5073239;28;20005;-70
2023/01/08 07:09:32;;;;;;;;;;;;;;;5.29;100.00;95735.28;5105964;28;19992;-70
2023/01/08 07:11:58;;;;;;;;;;;;;;;5.31;100.00;95737.72;5073392;28;20313;-71
2023/01/08 07:14:24;;;;;;;;;;;;;;;5.31;100.00;95743.69;5072930;28;20030;-70
2023/01/08 07:16:50;;;;;;;;;;;;;;;5.33;100.00;95740.91;5072949;28;19961;-70
2023/01/08 07:19:16;;;;;;;;;;;;;;;5.34;100.00;95739.91;5073545;28;20036;-70
2023/01/08 07:21:42;;;;;;;;;;;;;;;5.36;100.00;95740.50;5071745;28;19948;-70
2023/01/08 07:24:07;;;;;;;;;;;;;;;5.37;100.00;95742.09;5073026;28;20032;-70
2023/01/08 07:26:33;;;;;;;;;;;;;;;5.40;100.00;95747.69;5073121;28;19955;-70
2023/01/08 07:28:59;;;;;;;;;;;;;;;5.41;100.00;95741.50;5073711;28;19948;-70
2023/01/08 07:31:25;;;;;;;;;;;;;;;5.42;100.00;95748.31;5076864;28;19965;-70
2023/01/08 07:33:51;;;;;;;;;;;;;;;5.43;100.00;95746.50;5076644;28;19947;-70
2023/01/08 07:36:21;;;;;;;;;;;;;;;5.42;100.00;95743.09;5076799;28;19955;-70
2023/01/08 07:38:49;;;;;;;;;;;;;;;5.44;100.00;95748.91;5068444;28;19959;-71
2023/01/08 07:41:16;;;;;;;;;;;;;;;5.45;100.00;95741.88;5076800;28;19969;-71
2023/01/08 07:43:42;;;;;;;;;;;;;;;5.46;100.00;95752.09;5076619;28;19957;-71
2023/01/08 07:46:08;;;;;;;;;;;;;;;5.46;100.00;95746.09;5076687;28;20399;-71
2023/01/08 07:48:34;;;;;;;;;;;;;;;5.48;100.00;95750.09;5076614;28;20008;-71
2023/01/08 07:51:01;;;;;;;;;;;;;;;5.50;100.00;95749.88;5076607;28;20023;-70
2023/01/08 07:53:27;;;;;;;;;;;;;;;5.53;100.00;95751.28;5075243;28;19962;-70
2023/01/08 07:55:57;;;;;;;;;;;;;;;5.53;100.00;95741.69;5075424;28;19948;-70
2023/01/08 07:58:23;;;;;;;;;;;;;;;5.55;100.00;95746.69;5076113;28;19952;-71
2023/01/08 08:00:49;;;;;;;;;;;;;;;5.56;100.00;95745.66;5076475;28;20477;-70
2023/01/08 08:03:15;;;;;;;;;;;;;;;5.58;100.00;95744.44;5077002;28;20431;-70
2023/01/08 08:05:41;;;;;;;;;;;;;;;5.60;100.00;95739.06;5076201;28;20030;-70
2023/01/08 08:08:08;;;;;;;;;;;;;;;5.63;100.00;95739.47;5074948;28;19970;-70
2023/01/08 08:10:34;;;;;;;;;;;;;;;5.65;100.00;95734.84;5076135;28;20396;-70
2023/01/08 08:13:00;;;;;;;;;;;;;;;5.69;100.00;95735.22;5076240;28;19957;-70
2023/01/08 08:15:26;;;;;;;;;;;;;;;5.72;100.00;95727.03;5076266;28;20012;-71
2023/01/08 08:17:52;;;;;;;;;;;;;;;5.77;100.00;95727.19;5076123;28;20040;-70
2023/01/08 08:20:17;;;;;;;;;;;;;;;5.79;100.00;95732.19;5076042;28;19959;-70
2023/01/08 08:22:43;;;;;;;;;;;;;;;5.81;100.00;95730.19;5076093;28;20009;-70
2023/01/08 08:25:09;;;;;;;;;;;;;;;5.82;100.00;95732.59;5075728;28;20329;-70
2023/01/08 08:27:35;;;;;;;;;;;;;;;5.84;100.00;95730.59;5075790;28;19959;-70
2023/01/08 08:30:01;;;;;;;;;;;;;;;5.85;100.00;95726.19;5075707;28;20312;-70
2023/01/08 08:32:27;;;;;;;;;;;;;;;5.87;100.00;95722.38;5075603;28;19951;-70
2023/01/08 08:34:53;;;;;;;;;;;;;;;5.89;100.00;95725.56;5075702;28;19951;-70
2023/01/08 08:37:19;;;;;;;;;;;;;;;5.91;100.00;95717.56;5076037;28;19952;-72
2023/01/08 08:39:45;;;;;;;;;;;;;;;5.92;100.00;95721.75;5075261;28;20292;-71
2023/01/08 08:42:10;;;;;;;;;;;;;;;5.94;100.00;95724.16;5075412;28;19953;-70
2023/01/08 08:44:36;;;;;;;;;;;;;;;5.96;100.00;95717.75;5075296;28;19953;-71
2023/01/08 08:47:05;;;;;;;;;;;;;;;5.97;100.00;95711.56;5075506;28;20372;-71
2023/01/08 08:49:31;;;;;;;;;;;;;;;5.99;100.00;95706.16;5075214;28;19948;-71
2023/01/08 08:51:57;;;;;;;;;;;;;;;6.00;100.00;95711.13;5075466;28;19954;-71
2023/01/08 08:54:23;;;;;;;;;;;;;;;6.02;100.00;95700.53;5075472;28;20475;-71
2023/01/08 08:56:49;;;;;;;;;;;;;;;6.02;100.00;95701.31;5075030;28;19980;-71
2023/01/08 08:59:14;;;;;;;;;;;;;;;6.06;100.00;95706.91;5075718;28;20004;-71
2023/01/08 09:01:40;;;;;;;;;;;;;;;6.06;100.00;95702.50;5075082;28;20012;-71
2023/01/08 09:04:06;;;;;;;;;;;;;;;6.08;100.00;95700.47;5075543;28;20424;-70
2023/01/08 09:06:32;;;;;;;;;;;;;;;6.10;100.00;95705.50;5075086;28;19954;-70
2023/01/08 09:08:59;;;;;;;;;;;;;;;6.11;100.00;95701.91;5074817;28;19975;-70
2023/01/08 09:11:25;;;;;;;;;;;;;;;6.13;100.00;95699.06;5074784;28;19954;-70
2023/01/08 09:13:50;;;;;;;;;;;;;;;6.13;100.00;95697.25;5074931;28;20049;-70
2023/01/08 09:16:16;;;;;;;;;;;;;;;6.15;100.00;95699.66;5074662;28;19974;-70
2023/01/08 09:18:43;;;;;;;;;;;;;;;6.16;100.00;95693.47;5075042;28;20355;-70
2023/01/08 09:21:09;;;;;;;;;;;;;;;6.18;100.00;95702.66;5074745;28;19956;-70
2023/01/08 09:23:35;;;;;;;;;;;;;;;6.20;100.00;95702.44;5074640;28;19944;-71
2023/01/08 09:26:04;;;;;;;;;;;;;;;6.22;100.00;95705.66;5074468;28;19959;-70
2023/01/08 09:28:30;;;;;;;;;;;;;;;6.22;100.00;95696.03;5074525;28;19966;-70
2023/01/08 09:31:00;;;;;;;;;;;;;;;6.24;100.00;95698.44;5074456;28;19955;-70
2023/01/08 09:33:26;;;;;;;;;;;;;;;6.23;100.00;95697.59;5073767;28;19947;-70
2023/01/08 09:35:51;;;;;;;;;;;;;;;6.25;100.00;95705.22;5074386;28;19981;-71
2023/01/08 09:38:20;;;;;;;;;;;;;;;6.27;100.00;95700.59;5074257;28;19952;-70
2023/01/08 09:41:06;;;;;;;;;;;;;;;6.28;100.00;95697.78;5075180;28;20409;-70
2023/01/08 09:43:33;;;;;;;;;;;;;;;6.32;100.00;95705.19;5074621;28;19954;-70
2023/01/08 09:46:01;;;;;;;;;;;;;;;6.33;100.00;95710.19;5074185;28;19946;-70
2023/01/08 09:48:29;;;;;;;;;;;;;;;6.36;100.00;95701.16;5074331;28;19959;-70
2023/01/08 09:50:55;;;;;;;;;;;;;;;6.38;100.00;95712.94;5073857;28;19949;-70
2023/01/08 09:53:21;;;;;;;;;;;;;;;6.40;100.00;95713.53;5073754;28;20389;-71
2023/01/08 09:56:03;;;;;;;;;;;;;;;6.43;100.00;95712.34;5074225;28;19949;-70
2023/01/08 09:58:29;;;;;;;;;;;;;;;6.43;100.00;95712.34;5063483;28;19948;-70
2023/01/08 10:00:55;;;;;;;;;;;;;;;6.44;100.00;95708.72;5074000;28;19947;-70
2023/01/08 10:03:27;;;;;;;;;;;;;;;6.47;100.00;95709.09;5074256;28;20034;-71
2023/01/08 10:05:53;;;;;;;;;;;;;;;6.49;100.00;95712.28;5072014;28;20552;-70
2023/01/08 10:08:19;;;;;;;;;;;;;;;6.50;100.00;95713.88;5074135;28;20019;-71
2023/01/08 10:10:45;;;;;;;;;;;;;;;6.53;100.00;95717.06;5073958;28;20382;-70
2023/01/08 10:13:11;;;;;;;;;;;;;;;6.55;100.00;95707.25;5074009;28;19946;-71
2023/01/08 10:15:39;;;;;;;;;;;;;;;6.58;100.00;95709.44;5073781;28;19951;-70
2023/01/08 10:18:12;;;;;;;;;;;;;;;6.60;100.00;95712.63;5073604;28;19954;-70
2023/01/08 10:20:38;;;;;;;;;;;;;;;6.62;100.00;95710.63;5074063;28;19960;-70
2023/01/08 10:23:11;;;;;;;;;;;;;;;6.65;100.00;95718.00;5073745;28;19952;-71
2023/01/08 10:25:46;;;;;;;;;;;;;;;6.64;100.00;95709.38;5073785;28;19940;-71
2023/01/08 10:28:42;;;;;;;;;;;;;;;6.67;100.00;95701.13;5073696;28;19964;-71
2023/01/08 10:31:10;;;;;;;;;;;;;;;6.68;100.00;95697.53;5049947;28;20340;-71
2023/01/08 10:33:46;;;;;;;;;;;;;;;6.72;100.00;95700.53;5073600;28;19947;-70
2023/01/08 10:36:14;;;;;;;;;;;;;;;6.74;100.00;95687.28;5073626;28;19955;-71
2023/01/08 10:38:46;;;;;;;;;;;;;;;6.75;100.00;95679.25;5073448;28;19957;-71
2023/01/08 10:41:13;;;;;;;;;;;;;;;6.77;100.00;95679.03;5073558;28;19975;-71
2023/01/08 10:43:55;;;;;;;;;;;;;;;6.79;100.00;95684.84;5073896;28;19955;-71
2023/01/08 10:46:29;;;;;;;;;;;;;;;6.81;100.00;95677.59;5073427;28;20325;-70
2023/01/08 10:48:57;;;;;;;;;;;;;;;6.83;100.00;95679.00;5073344;28;19955;-71
2023/01/08 10:51:24;;;;;;;;;;;;;;;6.88;100.00;95671.31;5073232;28;19958;-71
2023/01/08 10:53:51;;;;;;;;;;;;;;;6.91;100.00;95680.53;5073695;28;19949;-71
2023/01/08 10:56:21;;;;;;;;;;;;;;;6.95;100.00;95675.69;5073431;28;19940;-71
2023/01/08 10:58:48;;;;;;;;;;;;;;;6.99;100.00;95672.44;5073857;28;19942;-71
2023/01/08 11:01:20;;;;;;;;;;;;;;;7.02;100.00;95666.00;5073162;28;19946;-71
2023/01/08 11:03:51;;;;;;;;;;;;;;;7.06;100.00;95657.53;5075223;28;19955;-71
2023/01/08 11:06:21;;;;;;;;;;;;;;;7.10;100.00;95657.91;5077227;28;19960;-71
2023/01/08 11:08:51;;;;;;;;;;;;;;;7.11;100.00;95647.25;5076193;28;19969;-71
2023/01/08 11:11:18;;;;;;;;;;;;;;;7.10;100.00;95645.66;5077190;28;19952;-71
2023/01/08 11:13:54;;;;;;;;;;;;;;;7.11;100.00;95638.63;5077084;28;19948;-71
2023/01/08 11:16:22;;;;;;;;;;;;;;;7.13;100.00;95635.81;5077211;28;19953;-71
2023/01/08 11:18:49;;;;;;;;;;;;;;;7.14;100.00;95640.00;5077180;28;19944;-71
2023/01/08 11:21:25;;;;;;;;;;;;;;;7.13;100.00;95630.59;5077226;28;19958;-71
2023/01/08 11:24:11;;;;;;;;;;;;;;;7.14;100.00;95625.19;5077139;28;20333;-71
2023/01/08 11:26:39;;;;;;;;;;;;;;;7.16;100.00;95623.16;5076925;28;19946;-71
2023/01/08 11:29:11;;;;;;;;;;;;;;;7.16;100.00;95625.75;5076844;28;19961;-71
2023/01/08 11:31:42;;;;;;;;;;;;;;;7.18;100.00;95623.75;5077211;28;19954;-71
2023/01/08 11:34:15;;;;;;;;;;;;;;;7.20;100.00;95618.28;5076844;28;19949;-71
2023/01/08 11:36:55;;;;;;;;;;;;;;;7.22;100.00;95609.22;5076881;28;19960;-71
2023/01/08 11:39:21;;;;;;;;;;;;;;;7.24;100.00;95598.59;5076674;28;19950;-71
2023/01/08 11:41:58;;;;;;;;;;;;;;;7.26;100.00;95605.19;5076928;28;20030;-71
2023/01/08 11:44:24;;;;;;;;;;;;;;;7.28;100.00;95584.91;5076782;28;20001;-71
2023/01/08 11:47:03;;;;;;;;;;;;;;;7.31;100.00;95583.69;5076626;28;19946;-71
2023/01/08 11:49:38;;;;;;;;;;;;;;;7.35;100.00;95584.03;5076611;28;19963;-71
2023/01/08 11:52:07;;;;;;;;;;;;;;;7.39;100.00;95585.19;5076365;28;19972;-71
2023/01/08 11:54:33;;;;;;;;;;;;;;;7.41;100.00;95570.94;5076483;28;19955;-71
2023/01/08 11:57:02;;;;;;;;;;;;;;;7.44;100.00;95567.06;5076430;28;19949;-71
2023/01/08 11:59:31;;;;;;;;;;;;;;;7.46;100.00;95560.63;5076437;28;19944;-71
2023/01/08 12:02:14;;;;;;;;;;;;;;;7.49;100.00;95564.59;5076353;28;19952;-72
2023/01/08 12:04:49;;;;;;;;;;;;;;;7.52;100.00;95545.91;5065013;28;19959;-71
2023/01/08 12:07:21;;;;;;;;;;;;;;;7.53;100.00;95548.28;5076276;28;19966;-71
2023/01/08 12:10:20;;;;;;;;;;;;;;;7.53;100.00;95542.28;5076295;28;19953;-71
2023/01/08 12:12:48;;;;;;;;;;;;;;;7.53;100.00;95540.44;5042134;28;20325;-71
2023/01/08 12:15:25;;;;;;;;;;;;;;;7.55;100.00;95531.63;5075277;28;20416;-71
2023/01/08 12:17:54;;;;;;;;;;;;;;;7.59;100.00;95532.78;5075808;28;19948;-71
2023/01/08 12:20:26;;;;;;;;;;;;;;;7.63;100.00;95537.31;5076156;28;19947;-71
2023/01/08 12:22:51;;;;;;;;;;;;;;;7.63;100.00;95532.09;5075946;28;19950;-71
2023/01/08 12:25:53;;;;;;;;;;;;;;;7.66;100.00;95528.25;5075843;28;19952;-71
2023/01/08 12:28:32;;;;;;;;;;;;;;;7.66;100.00;95523.81;5013843;28;19960;-71
2023/01/08 12:31:18;;;;;;;;;;;;;;;7.68;100.00;95524.41;5068475;28;20437;-71
2023/01/08 12:33:52;;;;;;;;;;;;;;;7.70;100.00;95526.78;5075403;28;19950;-71
2023/01/08 12:36:21;;;;;;;;;;;;;;;7.71;100.00;95523.19;5076044;28;20330;-71
2023/01/08 12:39:00;;;;;;;;;;;;;;;7.76;100.00;95512.06;5075069;28;19953;-71
2023/01/08 12:41:27;;;;;;;;;;;;;;;7.76;100.00;95525.91;5075536;28;20451;-71
2023/01/08 12:43:58;;;;;;;;;;;;;;;7.77;100.00;95517.06;5075349;28;19953;-71
2023/01/08 12:46:25;;;;;;;;;;;;;;;7.78;100.00;95516.03;5075362;28;20317;-71
2023/01/08 12:48:55;;;;;;;;;;;;;;;7.81;100.00;95513.00;5075606;28;19966;-71
2023/01/08 12:51:24;;;;;;;;;;;;;;;7.83;100.00;95517.97;5075243;28;19950;-71
2023/01/08 12:53:56;;;;;;;;;;;;;;;7.83;100.00;95516.19;5075666;28;20398;-71